Time;durP1;ratioP1;P1;durP2;ratioP2;P2;SDS_P1;SDS_P2;PMS_P1;PMS_P2;Temp;Humidity;BMP_temperature;BMP_pressure;BME280_temperature;BME280_humidity;BME280_pressure;Samples;Min_cycle;Max_cycle;Signal;HPM_P1;HPM_P2
2022/08/21 00:06:54;;;;;;;32.00;18.70;;;;;;;20.34;86.69;98121.09;434288;1267;108651;-39
2022/08/21 00:17:02;;;;;;;27.40;19.00;;;;;;;20.33;86.85;98126.73;434029;1266;96765;-40
2022/08/21 00:27:09;;;;;;;28.20;19.70;;;;;;;20.31;86.85;98133.19;433872;1266;109767;-40
2022/08/21 00:37:17;;;;;;;23.80;19.00;;;;;;;20.30;87.14;98136.21;434058;1267;108734;-41
2022/08/21 00:47:23;;;;;;;24.90;18.70;;;;;;;20.33;87.14;98131.41;433712;1267;95406;-41
2022/08/21 00:57:37;;;;;;;25.60;19.20;;;;;;;20.31;87.32;98124.60;434376;1268;109574;-40
2022/08/21 01:07:46;;;;;;;25.80;19.60;;;;;;;20.24;87.46;98114.67;433927;1268;108855;-41
2022/08/21 01:28:07;;;;;;;32.60;21.60;;;;;;;20.20;87.95;98088.57;434291;1266;107893;-39
2022/08/21 01:38:14;;;;;;;27.70;20.50;;;;;;;20.13;87.95;98075.69;434068;1268;96143;-40
2022/08/21 01:48:22;;;;;;;26.40;21.60;;;;;;;20.09;88.31;98061.34;433933;1266;109854;-40
2022/08/21 01:58:29;;;;;;;28.80;21.70;;;;;;;20.05;88.63;98051.98;434193;1266;108149;-40
2022/08/21 02:08:37;;;;;;;26.00;20.90;;;;;;;20.11;88.76;98052.34;434006;1268;95353;-41
2022/08/21 02:18:44;;;;;;;31.60;23.10;;;;;;;20.09;88.90;98042.59;434135;1266;108606;-40
2022/08/21 02:28:52;;;;;;;31.90;26.90;;;;;;;20.10;89.22;98043.86;433838;1266;95313;-40
2022/08/21 02:38:59;;;;;;;31.70;27.70;;;;;;;20.05;89.52;98041.40;434145;1267;109798;-40
2022/08/21 02:49:06;;;;;;;34.40;26.40;;;;;;;20.03;89.96;98039.96;434223;1267;108849;-41
2022/08/21 02:59:13;;;;;;;40.00;29.90;;;;;;;20.04;90.08;98051.85;434084;1268;95706;-40
2022/08/21 03:09:21;;;;;;;42.10;30.50;;;;;;;20.06;90.19;98062.69;434109;1267;108647;-40
2022/08/21 03:19:28;;;;;;;38.30;28.30;;;;;;;20.09;90.30;98062.73;433559;1267;96172;-41
2022/08/21 03:29:35;;;;;;;36.10;28.30;;;;;;;20.11;90.32;98040.25;433908;1267;109712;-40
2022/08/21 03:39:44;;;;;;;42.20;29.10;;;;;;;20.08;90.51;98032.10;434013;1267;107980;-39
2022/08/21 03:49:51;;;;;;;37.60;29.80;;;;;;;20.11;90.55;98026.36;433895;1267;95233;-40
2022/08/21 03:59:58;;;;;;;37.90;26.60;;;;;;;20.11;90.63;98028.28;434341;1267;109028;-41
2022/08/21 04:10:06;;;;;;;34.20;25.30;;;;;;;20.03;90.95;98027.84;434247;1267;96143;-43
2022/08/21 04:30:22;;;;;;;34.50;25.50;;;;;;;19.91;91.49;98040.41;434141;1266;109027;-41
2022/08/21 04:40:34;;;;;;;29.80;23.00;;;;;;;19.90;91.57;98050.15;434044;1266;96143;-41
2022/08/21 04:50:47;;;;;;;28.90;23.10;;;;;;;19.91;91.92;98055.34;433742;1267;109172;-41
2022/08/21 05:00:52;;;;;;;31.90;23.70;;;;;;;19.93;91.96;98055.71;434529;1266;96118;-41
2022/08/21 05:11:00;;;;;;;27.50;23.30;;;;;;;19.94;92.16;98059.14;434614;1266;109507;-41
2022/08/21 05:21:07;;;;;;;30.40;22.10;;;;;;;19.87;92.71;98059.52;434609;1266;107893;-41
2022/08/21 05:31:13;;;;;;;31.70;23.20;;;;;;;19.86;92.87;98067.09;433723;1266;96201;-41
2022/08/21 05:41:21;;;;;;;28.60;23.50;;;;;;;19.89;92.78;98072.23;434191;1267;108827;-40
2022/08/21 05:51:28;;;;;;;32.10;25.20;;;;;;;19.88;93.03;98082.23;434328;1267;96534;-41
2022/08/21 06:01:35;;;;;;;30.60;24.50;;;;;;;19.93;92.97;98088.08;433820;1267;110025;-41
2022/08/21 06:11:43;;;;;;;33.60;24.40;;;;;;;20.09;93.12;98085.35;433019;1268;1664463;-41
2022/08/21 06:21:50;;;;;;;29.80;23.80;;;;;;;20.42;93.10;98090.67;434158;1266;96134;-41
2022/08/21 06:31:57;;;;;;;37.60;25.50;;;;;;;20.50;92.30;98085.27;433940;1267;109668;-41
2022/08/21 06:42:05;;;;;;;34.90;25.90;;;;;;;20.55;92.28;98083.76;434086;1267;95540;-41
2022/08/21 06:52:17;;;;;;;31.40;24.00;;;;;;;20.85;92.28;98087.28;434189;1266;109365;-41
2022/08/21 07:02:24;;;;;;;34.20;24.90;;;;;;;21.17;92.01;98100.85;434001;1266;108749;-40
2022/08/21 07:22:39;;;;;;;36.00;25.00;;;;;;;21.29;91.33;98125.79;434257;1266;108683;-41
2022/08/21 07:32:48;;;;;;;35.80;25.60;;;;;;;21.19;90.97;98128.56;433873;1267;96111;-40
2022/08/21 07:42:56;;;;;;;34.60;25.10;;;;;;;21.18;90.98;98132.71;434020;1268;109714;-38
2022/08/21 08:03:11;;;;;;;35.40;26.30;;;;;;;21.29;90.81;98132.87;433578;1267;96133;-39
2022/08/21 08:13:17;;;;;;;24.10;18.20;;;;;;;21.26;90.70;98132.19;434026;1266;108769;-39
2022/08/21 08:23:25;;;;;;;11.20;9.80;;;;;;;20.82;90.53;98128.45;434403;1266;95304;-40
2022/08/21 08:33:31;;;;;;;14.10;8.80;;;;;;;20.57;90.94;98135.11;434357;1266;109411;-40
2022/08/21 08:43:40;;;;;;;12.30;7.30;;;;;;;20.67;91.11;98128.32;433873;1268;108938;-40
2022/08/21 08:53:48;;;;;;;11.60;6.30;;;;;;;21.00;91.20;98116.98;434103;1266;96000;-40
2022/08/21 09:24:19;;;;;;;7.40;6.70;;;;;;;22.71;90.61;98108.19;433905;1266;110236;-40
2022/08/21 09:34:28;;;;;;;6.60;3.10;;;;;;;23.22;89.84;98102.36;434075;1266;109013;-39
2022/08/21 09:54:49;;;;;;;2.80;2.60;;;;;;;23.53;88.05;98085.16;434306;1267;108638;-41
2022/08/21 10:05:00;;;;;;;4.30;4.00;;;;;;;23.94;87.96;98088.69;433868;1267;96130;-41
2022/08/21 10:15:07;;;;;;;4.10;3.60;;;;;;;23.97;86.82;98097.15;434012;1267;109915;-40
2022/08/21 10:25:14;;;;;;;3.40;3.10;;;;;;;23.52;86.39;98102.05;434184;1267;109280;-39
2022/08/21 10:35:20;;;;;;;4.60;3.30;;;;;;;23.24;86.24;98100.89;434043;1266;96055;-41
2022/08/21 10:45:29;;;;;;;5.50;4.00;;;;;;;23.09;86.21;98104.23;434248;1266;108052;-41
2022/08/21 10:55:42;;;;;;;6.50;4.60;;;;;;;22.98;86.18;98109.23;433989;1266;97856;-41
2022/08/21 11:05:51;;;;;;;9.00;6.80;;;;;;;22.70;86.03;98119.36;433803;1267;111036;-41
2022/08/21 11:15:54;;;;;;;;;;;;;;;22.53;86.02;98122.13;434276;1266;108415;-39
2022/08/21 11:36:21;;;;;;;1.00;0.90;;;;;;;22.37;85.67;98116.20;433997;1266;108747;-39
2022/08/21 11:46:28;;;;;;;0.80;0.70;;;;;;;22.50;85.38;98126.48;434100;1266;97980;-39
2022/08/21 11:56:38;;;;;;;1.90;0.50;;;;;;;22.62;85.15;98123.07;434425;1267;110847;-40
2022/08/21 12:06:45;;;;;;;2.10;1.90;;;;;;;22.77;84.91;98118.18;434045;1266;108658;-40
2022/08/21 12:16:52;;;;;;;2.80;0.80;;;;;;;22.61;84.46;98128.48;433775;1265;96643;-39
2022/08/21 12:27:13;;;;;;;0.60;0.60;;;;;;;22.46;84.28;98131.54;434179;1268;109412;-40
2022/08/21 12:37:22;;;;;;;1.20;1.10;;;;;;;22.24;84.31;98128.41;434117;1266;97830;-39
2022/08/21 12:47:28;;;;;;;1.60;1.50;;;;;;;22.07;84.09;98132.66;434214;1267;111359;-40
2022/08/21 12:57:41;;;;;;;1.60;1.20;;;;;;;21.96;84.00;98137.98;434236;1268;108875;-39
2022/08/21 13:07:51;;;;;;;2.60;2.40;;;;;;;21.91;83.99;98138.35;434351;1267;97877;-39
2022/08/21 13:28:08;;;;;;;4.80;4.20;;;;;;;21.44;83.99;98139.34;434231;1267;97581;-41
2022/08/21 13:38:17;;;;;;;7.70;6.40;;;;;;;21.11;83.86;98147.73;434084;1267;110146;-41
2022/08/21 13:48:27;;;;;;;7.70;7.00;;;;;;;20.81;84.25;98147.61;434130;1267;108938;-41
2022/08/21 13:58:42;;;;;;;9.20;7.60;;;;;;;20.57;84.54;98149.77;434103;1266;97990;-41
2022/08/21 14:08:49;;;;;;;10.90;8.80;;;;;;;20.32;84.55;98159.84;434264;1266;108787;-41
2022/08/21 14:19:08;;;;;;;9.80;8.80;;;;;;;20.03;84.77;98164.43;433988;1266;97490;-41
2022/08/21 14:29:17;;;;;;;14.20;8.30;;;;;;;19.66;84.64;98163.18;434176;1266;111018;-40
2022/08/21 14:39:24;;;;;;;11.70;9.30;;;;;;;19.22;85.03;98168.20;433716;1268;109480;-42
2022/08/21 14:49:32;;;;;;;12.90;9.70;;;;;;;18.95;85.64;98166.98;433210;1266;97759;-41
2022/08/21 14:59:40;;;;;;;15.90;9.40;;;;;;;18.80;86.03;98176.35;433886;1266;109590;-41
2022/08/21 15:19:54;;;;;;;8.10;7.30;;;;;;;18.60;86.57;98199.52;434051;1266;111060;-42
2022/08/21 15:30:02;;;;;;;9.50;8.50;;;;;;;18.55;86.54;98196.55;433981;1268;108948;-42
2022/08/21 15:40:12;;;;;;;9.70;7.80;;;;;;;18.46;86.93;98201.50;434412;1268;97522;-42
2022/08/21 15:50:21;;;;;;;7.90;7.20;;;;;;;18.39;87.05;98211.34;434078;1267;107591;-41
2022/08/21 16:00:28;;;;;;;9.50;8.30;;;;;;;18.29;87.11;98216.21;433808;1266;97977;-40
2022/08/21 16:20:43;;;;;;;8.40;7.60;;;;;;;18.22;87.41;98218.02;433720;1267;106090;-42
2022/08/21 16:30:52;;;;;;;8.10;7.10;;;;;;;18.11;87.63;98211.59;433971;1267;96659;-40
2022/08/21 16:40:58;;;;;;;;;;;;;;;18.10;87.82;98198.45;434047;1267;108773;-41
2022/08/21 16:51:06;;;;;;;8.00;7.20;;;;;;;18.03;88.07;98194.85;434338;1267;97913;-41
2022/08/21 17:01:16;;;;;;;10.30;9.40;;;;;;;17.98;88.32;98188.39;434326;1267;110132;-41
2022/08/21 17:11:29;;;;;;;9.70;8.80;;;;;;;17.93;88.45;98179.56;434280;1268;108857;-41
2022/08/21 17:21:44;;;;;;;9.00;7.20;;;;;;;17.92;88.73;98186.05;433760;1266;97885;-41
2022/08/21 17:31:49;;;;;;;9.40;8.00;;;;;;;17.91;88.81;98197.73;434224;1266;108538;-41
2022/08/21 17:42:01;;;;;;;9.20;7.80;;;;;;;17.94;88.96;98206.67;434228;1266;97490;-42
2022/08/21 17:52:09;;;;;;;8.20;7.40;;;;;;;17.95;89.10;98214.89;433858;1267;110722;-39
2022/08/21 18:02:18;;;;;;;11.80;9.00;;;;;;;17.96;89.45;98217.35;434024;1268;108192;-40
2022/08/21 18:12:25;;;;;;;9.20;8.40;;;;;;;17.99;89.39;98223.58;432598;1268;1648343;-39
2022/08/21 18:22:31;;;;;;;8.50;7.60;;;;;;;18.03;89.60;98219.73;433786;1267;108594;-39
2022/08/21 18:32:39;;;;;;;11.10;8.00;;;;;;;18.02;89.74;98220.70;433743;1268;97475;-39
2022/08/21 18:53:02;;;;;;;10.70;9.50;;;;;;;18.05;89.80;98220.19;433902;1268;108823;-39
2022/08/21 19:03:25;;;;;;;10.10;9.10;;;;;;;18.10;90.18;98209.63;433915;1267;97582;-39
2022/08/21 19:33:55;;;;;;;14.10;11.70;;;;;;;18.29;90.68;98196.14;433939;1268;111160;-39
2022/08/21 19:44:11;;;;;;;15.50;13.70;;;;;;;18.40;90.84;98196.67;433782;1267;108931;-39
2022/08/21 19:54:26;;;;;;;16.10;14.00;;;;;;;18.48;91.09;98195.81;434066;1267;97551;-40
2022/08/21 20:04:35;;;;;;;21.90;15.00;;;;;;;18.57;91.12;98200.00;434004;1268;109042;-40
2022/08/21 20:14:41;;;;;;;17.00;14.90;;;;;;;18.63;91.24;98194.94;434076;1267;97907;-40
2022/08/21 20:24:48;;;;;;;22.80;15.50;;;;;;;18.66;91.40;98189.48;434020;1268;111251;-40
2022/08/21 20:34:56;;;;;;;19.10;14.20;;;;;;;18.65;91.28;98193.52;433867;1267;108811;-40
2022/08/21 20:45:06;;;;;;;19.70;16.40;;;;;;;18.63;91.54;98191.50;434212;1268;97914;-40
2022/08/21 20:55:19;;;;;;;26.30;16.20;;;;;;;18.60;91.73;98198.34;433890;1267;109237;-40
2022/08/21 21:05:36;;;;;;;24.90;17.00;;;;;;;18.54;91.85;98194.20;433918;1267;96801;-39
2022/08/21 21:15:47;;;;;;;24.50;18.00;;;;;;;18.54;92.17;98189.45;434089;1268;109977;-39
2022/08/21 21:26:04;;;;;;;21.90;17.50;;;;;;;18.55;92.35;98185.79;432996;1270;108569;-39
2022/08/21 21:36:11;;;;;;;26.00;19.50;;;;;;;18.55;92.42;98187.94;433773;1268;96669;-39
2022/08/21 21:46:26;;;;;;;24.00;17.60;;;;;;;18.54;92.59;98194.92;433734;1267;108954;-39
2022/08/21 21:56:32;;;;;;;24.70;17.10;;;;;;;18.54;92.69;98192.61;433391;1267;97464;-40
2022/08/21 22:06:47;;;;;;;29.50;16.60;;;;;;;18.51;92.56;98196.52;433279;1267;111039;-40
2022/08/21 22:16:58;;;;;;;22.00;15.10;;;;;;;18.48;92.55;98202.35;432535;1267;108344;-40
2022/08/21 22:27:10;;;;;;;18.00;14.40;;;;;;;18.43;92.80;98197.48;433991;1268;96708;-39
2022/08/21 22:47:32;;;;;;;13.10;10.90;;;;;;;18.31;93.05;98192.48;433880;1267;97485;-39
2022/08/21 22:57:39;;;;;;;16.70;9.60;;;;;;;18.29;93.17;98194.75;434598;1267;111023;-40
2022/08/21 23:07:48;;;;;;;12.30;9.70;;;;;;;18.31;93.34;98185.98;433902;1267;108756;-40
2022/08/21 23:17:58;;;;;;;15.00;9.00;;;;;;;18.29;93.23;98182.77;433897;1267;97878;-40
2022/08/21 23:28:10;;;;;;;9.60;8.60;;;;;;;18.25;93.42;98181.11;433806;1267;109340;-39
2022/08/21 23:38:22;;;;;;;10.10;9.00;;;;;;;18.19;93.31;98181.55;434065;1267;96686;-39
2022/08/21 23:48:33;;;;;;;13.00;8.80;;;;;;;18.15;93.73;98179.52;433811;1267;111069;-39
2022/08/21 23:58:41;;;;;;;11.80;10.50;;;;;;;18.14;93.87;98180.13;433635;1267;108822;-39
